createdAt,value
2023-05-08T00:01:57.690Z,8.17
2023-05-08T00:04:24.478Z,8.70
2023-05-08T00:06:54.676Z,8.07
2023-05-08T00:09:21.708Z,8.17
2023-05-08T00:11:48.885Z,7.90
2023-05-08T00:14:15.736Z,7.67
2023-05-08T00:16:42.767Z,7.87
2023-05-08T00:19:09.480Z,8.13
2023-05-08T00:21:36.621Z,7.83
2023-05-08T00:24:03.485Z,8.30
2023-05-08T00:26:30.253Z,7.90
2023-05-08T00:28:57.301Z,7.80
2023-05-08T00:31:24.197Z,7.67
2023-05-08T00:33:50.949Z,7.87
2023-05-08T00:36:18.436Z,7.60
2023-05-08T00:38:45.152Z,7.97
2023-05-08T00:41:12.015Z,8.47
2023-05-08T00:43:40.375Z,7.13
2023-05-08T00:46:09.713Z,7.60
2023-05-08T00:48:37.092Z,8.03
2023-05-08T00:51:07.737Z,7.97
2023-05-08T00:53:41.160Z,8.10
2023-05-08T00:56:12.201Z,7.70
2023-05-08T00:58:39.857Z,8.57
2023-05-08T01:01:07.396Z,8.90
2023-05-08T01:03:36.149Z,7.67
2023-05-08T01:06:05.112Z,8.73
2023-05-08T01:08:32.482Z,8.03
2023-05-08T01:11:14.093Z,8.23
2023-05-08T01:14:02.821Z,8.43
2023-05-08T01:17:06.018Z,9.20
2023-05-08T01:19:54.849Z,9.27
2023-05-08T01:22:30.651Z,8.63
2023-05-08T01:25:21.363Z,8.77
2023-05-08T01:28:06.368Z,9.00
2023-05-08T01:30:59.115Z,9.10
2023-05-08T01:33:47.484Z,8.83
2023-05-08T01:36:41.446Z,9.10
2023-05-08T01:39:17.515Z,9.50
2023-05-08T01:41:56.551Z,9.93
2023-05-08T01:44:28.907Z,9.00
2023-05-08T01:46:56.024Z,8.97
2023-05-08T01:49:27.475Z,9.30
2023-05-08T01:52:00.814Z,10.43
2023-05-08T01:54:33.869Z,9.80
2023-05-08T01:57:01.911Z,10.17
2023-05-08T01:59:31.188Z,9.03
2023-05-08T02:02:00.882Z,10.83
2023-05-08T02:04:28.874Z,9.90
2023-05-08T02:06:57.069Z,10.03
2023-05-08T02:09:25.087Z,9.80
2023-05-08T02:11:53.607Z,10.93
2023-05-08T02:14:28.133Z,10.37
2023-05-08T02:16:57.608Z,9.70
2023-05-08T02:19:26.958Z,10.30
2023-05-08T02:21:58.299Z,10.77
2023-05-08T02:24:25.619Z,10.47
2023-05-08T02:26:54.588Z,11.50
2023-05-08T02:29:23.780Z,10.60
2023-05-08T02:31:53.364Z,9.97
2023-05-08T02:34:23.369Z,10.33
2023-05-08T02:36:53.665Z,10.20
2023-05-08T02:39:25.300Z,10.27
2023-05-08T02:41:52.615Z,11.13
2023-05-08T02:44:19.491Z,10.10
2023-05-08T02:47:08.440Z,10.77
2023-05-08T02:49:49.161Z,11.23
2023-05-08T02:52:34.732Z,11.13
2023-05-08T02:55:06.004Z,10.60
2023-05-08T02:58:16.482Z,10.50
2023-05-08T03:01:30.291Z,10.90
2023-05-08T03:04:07.852Z,11.50
2023-05-08T03:06:40.340Z,10.47
2023-05-08T03:09:13.156Z,11.47
2023-05-08T03:11:43.920Z,11.40
2023-05-08T03:14:14.007Z,11.43
2023-05-08T03:16:44.680Z,11.77
2023-05-08T03:19:23.462Z,11.37
2023-05-08T03:21:53.455Z,12.33
2023-05-08T03:24:22.705Z,11.00
2023-05-08T03:26:49.982Z,11.90
2023-05-08T03:29:18.584Z,12.33
2023-05-08T03:31:47.387Z,12.27
2023-05-08T03:34:15.985Z,11.10
2023-05-08T03:36:42.940Z,11.73
2023-05-08T03:39:09.968Z,11.77
2023-05-08T03:41:36.680Z,11.73
2023-05-08T03:44:04.298Z,11.17
2023-05-08T03:46:35.703Z,12.47
2023-05-08T03:49:04.793Z,11.03
2023-05-08T03:51:32.390Z,11.00
2023-05-08T03:53:59.346Z,10.70
2023-05-08T03:56:26.329Z,11.90
2023-05-08T03:59:21.773Z,11.60
2023-05-08T04:02:08.037Z,11.27
2023-05-08T04:04:43.866Z,11.83
2023-05-08T04:07:31.944Z,10.77
2023-05-08T04:10:04.660Z,10.73
2023-05-08T04:12:52.526Z,10.83
2023-05-08T04:15:29.268Z,11.03
2023-05-08T04:18:09.258Z,11.23
2023-05-08T04:20:42.314Z,11.23
2023-05-08T04:23:14.068Z,11.00
2023-05-08T04:25:42.622Z,10.13
2023-05-08T04:28:10.270Z,10.70
2023-05-08T04:30:37.207Z,11.17
2023-05-08T04:33:05.832Z,10.80
2023-05-08T04:35:34.049Z,10.60
2023-05-08T04:38:01.448Z,10.63
2023-05-08T04:40:28.387Z,11.50
2023-05-08T04:42:55.449Z,10.63
2023-05-08T04:45:22.539Z,10.17
2023-05-08T04:47:49.202Z,10.27
2023-05-08T04:50:15.949Z,10.87
2023-05-08T04:52:43.078Z,10.53
2023-05-08T04:55:10.536Z,11.23
2023-05-08T04:57:37.329Z,11.00
2023-05-08T05:00:06.253Z,10.60
2023-05-08T05:02:32.963Z,11.13
2023-05-08T05:05:01.215Z,10.20
2023-05-08T05:07:28.176Z,9.93
2023-05-08T05:09:55.123Z,10.20
2023-05-08T05:12:21.750Z,10.30
2023-05-08T05:14:48.348Z,10.37
2023-05-08T05:17:14.972Z,10.10
2023-05-08T05:19:41.605Z,10.63
2023-05-08T05:22:08.456Z,11.47
2023-05-08T05:24:39.787Z,10.40
2023-05-08T05:27:06.479Z,11.67
2023-05-08T05:29:33.432Z,9.70
2023-05-08T05:32:16.461Z,10.70
2023-05-08T05:34:43.355Z,10.27
2023-05-08T05:37:23.074Z,9.63
2023-05-08T05:39:49.999Z,9.83
2023-05-08T05:42:16.642Z,8.97
2023-05-08T05:44:43.320Z,9.40
2023-05-08T05:47:10.951Z,9.67
2023-05-08T05:49:37.657Z,9.67
2023-05-08T05:52:04.488Z,9.23
2023-05-08T05:54:48.473Z,7.93
2023-05-08T05:57:53.585Z,9.93
2023-05-08T06:00:28.721Z,8.47
2023-05-08T06:03:15.761Z,8.50
2023-05-08T06:05:42.613Z,8.50
2023-05-08T06:08:09.295Z,8.67
2023-05-08T06:10:41.439Z,8.03
2023-05-08T06:13:09.701Z,8.50
2023-05-08T06:15:36.788Z,8.60
2023-05-08T06:18:06.792Z,9.03
2023-05-08T06:20:33.554Z,7.87
2023-05-08T06:23:00.708Z,8.70
2023-05-08T06:25:28.408Z,8.03
2023-05-08T06:27:55.044Z,8.20
2023-05-08T06:30:21.983Z,7.70
2023-05-08T06:32:48.710Z,7.70
2023-05-08T06:35:18.529Z,7.97
2023-05-08T06:37:46.834Z,8.60
2023-05-08T06:40:13.986Z,8.40
2023-05-08T06:42:41.112Z,7.57
2023-05-08T06:45:09.815Z,7.60
2023-05-08T06:47:36.708Z,7.53
2023-05-08T06:50:04.010Z,7.03
2023-05-08T06:52:30.942Z,7.10
2023-05-08T06:54:57.574Z,7.80
2023-05-08T06:57:27.105Z,7.40
2023-05-08T06:59:54.433Z,7.10
2023-05-08T07:02:21.113Z,7.40
2023-05-08T07:04:48.164Z,7.43
2023-05-08T07:07:15.321Z,7.33
2023-05-08T07:09:42.063Z,7.47
2023-05-08T07:12:09.439Z,7.37
2023-05-08T07:14:36.538Z,7.30
2023-05-08T07:17:07.618Z,7.47
2023-05-08T07:19:36.522Z,7.00
2023-05-08T07:22:03.296Z,7.37
2023-05-08T07:24:30.444Z,7.83
2023-05-08T07:26:59.559Z,6.97
2023-05-08T07:29:29.286Z,6.90
2023-05-08T07:31:56.529Z,6.53
2023-05-08T07:34:23.275Z,6.90
2023-05-08T07:36:50.229Z,6.27
2023-05-08T07:39:17.203Z,7.50
2023-05-08T07:41:44.227Z,6.90
2023-05-08T07:44:10.911Z,6.77
2023-05-08T07:46:38.258Z,7.03
2023-05-08T07:49:05.014Z,6.63
2023-05-08T07:51:32.358Z,6.57
2023-05-08T07:53:59.004Z,7.00
2023-05-08T07:56:25.744Z,6.77
2023-05-08T07:58:52.620Z,7.00
2023-05-08T08:01:19.385Z,6.10
2023-05-08T08:03:46.771Z,6.67
2023-05-08T08:06:13.766Z,6.63
2023-05-08T08:08:40.901Z,6.40
2023-05-08T08:11:07.895Z,6.83
2023-05-08T08:13:34.908Z,7.20
2023-05-08T08:16:03.854Z,7.10
2023-05-08T08:18:33.649Z,6.70
2023-05-08T08:21:00.554Z,6.53
2023-05-08T08:23:27.304Z,6.63
2023-05-08T08:25:54.229Z,6.60
2023-05-08T08:28:20.918Z,6.93
2023-05-08T08:30:47.618Z,6.70
2023-05-08T08:33:15.812Z,6.47
2023-05-08T08:35:43.800Z,5.90
2023-05-08T08:38:10.467Z,5.80
2023-05-08T08:40:41.316Z,6.80
2023-05-08T08:43:08.916Z,6.10
2023-05-08T08:45:37.013Z,7.70
2023-05-08T08:48:05.287Z,6.73
2023-05-08T08:50:33.398Z,6.23
2023-05-08T08:53:22.436Z,6.80
2023-05-08T08:55:53.942Z,6.07
2023-05-08T08:58:25.511Z,6.27
2023-05-08T09:00:54.845Z,5.30
2023-05-08T09:03:21.588Z,5.63
2023-05-08T09:05:51.545Z,6.20
2023-05-08T09:08:21.577Z,5.53
2023-05-08T09:10:48.601Z,5.13
2023-05-08T09:13:16.652Z,5.80
2023-05-08T09:15:45.005Z,5.72
2023-05-08T09:18:11.804Z,5.72
2023-05-08T09:20:41.336Z,5.82
2023-05-08T09:23:08.419Z,5.85
2023-05-08T09:25:45.835Z,5.68
2023-05-08T09:28:21.199Z,5.85
2023-05-08T09:31:34.271Z,5.93
2023-05-08T09:34:01.105Z,4.63
2023-05-08T09:36:28.946Z,5.30
2023-05-08T09:42:52.998Z,5.32
2023-05-08T09:45:29.261Z,6.03
2023-05-08T09:47:56.418Z,5.55
2023-05-08T09:50:23.844Z,5.15
2023-05-08T09:52:50.907Z,4.68
2023-05-08T09:55:18.182Z,4.50
2023-05-08T09:57:54.088Z,5.30
2023-05-08T10:00:21.540Z,4.95
2023-05-08T10:03:02.199Z,4.40
2023-05-08T10:05:34.880Z,5.13
2023-05-08T10:08:24.400Z,5.15
2023-05-08T10:10:51.171Z,4.15
2023-05-08T10:13:18.020Z,4.90
2023-05-08T10:16:18.158Z,4.10
2023-05-08T10:18:48.737Z,3.75
2023-05-08T10:21:16.768Z,4.55
2023-05-08T10:23:47.043Z,4.85
2023-05-08T10:26:19.640Z,4.78
2023-05-08T10:28:57.653Z,4.95
2023-05-08T10:31:35.726Z,4.22
2023-05-08T10:34:04.116Z,4.45
2023-05-08T10:36:54.159Z,4.00
2023-05-08T10:39:22.390Z,4.30
2023-05-08T10:41:50.384Z,4.40
2023-05-08T10:44:18.398Z,3.70
2023-05-08T10:46:53.396Z,3.47
2023-05-08T10:49:47.811Z,4.03
2023-05-08T10:52:40.317Z,3.53
2023-05-08T10:55:22.715Z,3.50
2023-05-08T10:58:11.016Z,3.10
2023-05-08T11:00:52.947Z,3.50
2023-05-08T11:03:30.576Z,3.13
2023-05-08T11:05:59.930Z,3.17
2023-05-08T11:08:32.628Z,3.42
2023-05-08T11:11:02.275Z,3.15
2023-05-08T11:14:10.743Z,3.40
2023-05-08T11:16:56.574Z,2.88
2023-05-08T11:19:25.207Z,2.95
2023-05-08T11:22:10.805Z,3.25
2023-05-08T11:24:38.681Z,3.28
2023-05-08T11:27:05.456Z,3.47
2023-05-08T11:29:32.564Z,3.20
2023-05-08T11:32:10.938Z,3.40
2023-05-08T11:34:44.060Z,3.20
2023-05-08T11:37:21.718Z,3.50
2023-05-08T11:39:49.078Z,3.57
2023-05-08T11:42:25.497Z,3.30
2023-05-08T11:45:10.946Z,3.47
2023-05-08T11:47:42.986Z,2.83
2023-05-08T11:50:12.103Z,3.60
2023-05-08T11:52:41.003Z,3.03
2023-05-08T11:55:10.405Z,3.60
2023-05-08T11:57:37.744Z,2.97
2023-05-08T12:00:10.370Z,3.10
2023-05-08T12:02:40.026Z,2.83
2023-05-08T12:05:08.800Z,2.80
2023-05-08T12:07:49.628Z,2.80
2023-05-08T12:10:17.515Z,3.00
2023-05-08T12:12:45.180Z,2.80
2023-05-08T12:15:14.903Z,2.90
2023-05-08T12:17:42.604Z,2.47
2023-05-08T12:20:16.542Z,2.40
2023-05-08T12:22:50.759Z,2.50
2023-05-08T12:25:18.738Z,2.90
2023-05-08T12:27:45.749Z,2.33
2023-05-08T12:30:14.789Z,2.63
2023-05-08T12:32:43.309Z,2.57
2023-05-08T12:35:12.240Z,2.13
2023-05-08T12:37:39.663Z,2.27
2023-05-08T12:40:08.172Z,2.20
2023-05-08T12:42:44.542Z,2.50
2023-05-08T12:45:18.953Z,2.30
2023-05-08T12:47:49.803Z,2.37
2023-05-08T12:50:18.794Z,2.47
2023-05-08T12:52:46.383Z,2.07
2023-05-08T12:55:22.533Z,2.00
2023-05-08T12:58:06.268Z,2.20
2023-05-08T13:00:41.296Z,2.30
2023-05-08T13:03:09.839Z,2.07
2023-05-08T13:05:38.135Z,1.97
2023-05-08T13:08:06.577Z,1.90
2023-05-08T13:10:56.472Z,2.10
2023-05-08T13:13:25.743Z,1.97
2023-05-08T13:15:56.708Z,2.30
2023-05-08T13:18:28.303Z,2.10
2023-05-08T13:20:56.292Z,2.00
2023-05-08T13:23:23.695Z,2.60
2023-05-08T13:25:50.658Z,2.20
2023-05-08T13:28:18.381Z,2.17
2023-05-08T13:30:45.036Z,2.40
2023-05-08T13:33:11.725Z,2.50
2023-05-08T13:35:38.436Z,2.10
2023-05-08T13:38:06.020Z,1.93
2023-05-08T13:40:33.261Z,2.10
2023-05-08T13:42:59.942Z,1.90
2023-05-08T13:45:27.168Z,2.20
2023-05-08T13:48:10.243Z,2.00
2023-05-08T13:50:37.292Z,2.13
2023-05-08T13:53:04.756Z,2.00
2023-05-08T13:55:31.436Z,1.80
2023-05-08T13:57:58.760Z,2.10
2023-05-08T14:00:27.839Z,1.90
2023-05-08T14:02:55.412Z,2.00
2023-05-08T14:05:22.167Z,2.60
2023-05-08T14:07:48.796Z,2.17
2023-05-08T14:10:17.025Z,1.90
2023-05-08T14:12:55.559Z,1.73
2023-05-08T14:15:25.120Z,2.00
2023-05-08T14:17:56.233Z,1.80
2023-05-08T14:20:22.915Z,1.70
2023-05-08T14:22:50.115Z,1.53
2023-05-08T14:25:17.392Z,1.83
2023-05-08T14:27:44.003Z,1.60
2023-05-08T14:30:11.107Z,2.07
2023-05-08T14:32:37.851Z,1.93
2023-05-08T14:35:05.944Z,1.60
2023-05-08T14:37:32.608Z,2.07
2023-05-08T14:39:59.459Z,2.17
2023-05-08T14:42:26.149Z,1.77
2023-05-08T14:44:53.478Z,1.60
2023-05-08T14:47:20.192Z,1.70
2023-05-08T14:49:47.315Z,1.60
2023-05-08T14:52:14.141Z,1.70
2023-05-08T14:54:53.945Z,2.00
2023-05-08T14:57:25.048Z,2.10
2023-05-08T15:02:40.935Z,2.00
2023-05-08T15:05:17.004Z,2.13
2023-05-08T15:07:59.533Z,2.00
2023-05-08T15:10:39.819Z,2.37
2023-05-08T15:13:13.901Z,2.13
2023-05-08T15:16:00.879Z,2.73
2023-05-08T15:18:28.846Z,2.37
2023-05-08T15:21:01.749Z,2.40
2023-05-08T15:23:29.580Z,2.50
2023-05-08T15:25:56.270Z,2.30
2023-05-08T15:28:23.286Z,2.40
2023-05-08T15:31:23.303Z,2.30
2023-05-08T15:33:50.144Z,2.30
2023-05-08T15:36:16.908Z,2.50
2023-05-08T15:38:43.672Z,2.40
2023-05-08T15:41:14.765Z,2.23
2023-05-08T15:43:42.533Z,2.80
2023-05-08T15:46:09.532Z,2.37
2023-05-08T15:48:36.332Z,2.30
2023-05-08T15:51:03.169Z,2.53
2023-05-08T15:53:29.978Z,2.57
2023-05-08T15:55:57.268Z,2.23
2023-05-08T15:58:24.981Z,2.50
2023-05-08T16:00:51.840Z,2.10
2023-05-08T16:03:19.604Z,2.20
2023-05-08T16:05:46.534Z,2.40
2023-05-08T16:08:14.235Z,2.80
2023-05-08T16:10:44.383Z,2.63
2023-05-08T16:13:11.710Z,2.57
2023-05-08T16:15:38.582Z,2.50
2023-05-08T16:18:06.668Z,2.33
2023-05-08T16:20:35.709Z,2.60
2023-05-08T16:23:03.567Z,2.50
2023-05-08T16:25:30.931Z,2.40
2023-05-08T16:27:57.753Z,2.30
2023-05-08T16:30:24.544Z,2.70
2023-05-08T16:32:52.048Z,2.50
2023-05-08T16:35:19.574Z,3.43
2023-05-08T16:37:47.286Z,2.80
2023-05-08T16:40:14.183Z,2.60
2023-05-08T16:42:41.267Z,3.03
2023-05-08T16:45:08.826Z,2.33
2023-05-08T16:47:36.114Z,2.87
2023-05-08T16:50:04.530Z,2.67
2023-05-08T16:52:32.809Z,2.50
2023-05-08T16:55:00.466Z,2.70
2023-05-08T16:57:27.734Z,2.43
2023-05-08T16:59:54.903Z,2.37
2023-05-08T17:02:22.043Z,2.33
2023-05-08T17:04:50.336Z,3.60
2023-05-08T17:07:17.978Z,3.07
2023-05-08T17:10:00.626Z,2.57
2023-05-08T17:12:27.425Z,2.50
2023-05-08T17:14:54.150Z,2.90
2023-05-08T17:17:21.466Z,2.50
2023-05-08T17:19:48.228Z,2.57
2023-05-08T17:22:15.539Z,2.97
2023-05-08T17:24:42.880Z,7.07
2023-05-08T17:27:10.291Z,4.73
2023-05-08T17:29:37.811Z,5.13
2023-05-08T17:32:04.987Z,2.90
2023-05-08T17:34:31.984Z,4.53
2023-05-08T17:36:59.135Z,3.37
2023-05-08T17:39:25.931Z,2.90
2023-05-08T17:41:52.792Z,15.73
2023-05-08T17:44:19.552Z,5.60
2023-05-08T17:46:46.378Z,4.67
2023-05-08T17:49:17.058Z,2.90
2023-05-08T17:51:45.938Z,2.80
2023-05-08T17:54:12.893Z,2.70
2023-05-08T17:56:39.617Z,2.80
2023-05-08T17:59:09.545Z,2.70
2023-05-08T18:01:36.453Z,2.70
2023-05-08T18:04:04.319Z,2.90
2023-05-08T18:06:31.584Z,3.23
2023-05-08T18:08:58.363Z,3.10
2023-05-08T18:11:26.838Z,3.07
2023-05-08T18:14:02.402Z,2.80
2023-05-08T18:16:29.763Z,2.83
2023-05-08T18:18:56.679Z,2.70
2023-05-08T18:21:24.697Z,18.77
2023-05-08T18:23:51.450Z,14.53
2023-05-08T18:26:18.210Z,29.20
2023-05-08T18:28:45.626Z,9.73
2023-05-08T18:31:13.426Z,5.20
2023-05-08T18:33:41.029Z,3.67
2023-05-08T18:36:07.834Z,4.10
2023-05-08T18:38:35.630Z,4.23
2023-05-08T18:41:03.983Z,4.37
2023-05-08T18:43:31.375Z,3.70
2023-05-08T18:46:00.505Z,4.00
2023-05-08T18:48:28.007Z,3.77
2023-05-08T18:50:59.023Z,3.50
2023-05-08T18:53:25.845Z,3.00
2023-05-08T18:55:53.017Z,3.10
2023-05-08T18:58:19.970Z,3.63
2023-05-08T19:00:47.292Z,3.60
2023-05-08T19:03:14.626Z,3.30
2023-05-08T19:05:41.803Z,3.20
2023-05-08T19:08:09.182Z,3.20
2023-05-08T19:10:36.415Z,3.20
2023-05-08T19:13:03.269Z,3.30
2023-05-08T19:15:30.717Z,3.60
2023-05-08T19:17:58.072Z,3.40
2023-05-08T19:20:24.974Z,3.23
2023-05-08T19:22:51.725Z,3.30
2023-05-08T19:25:19.263Z,3.40
2023-05-08T19:27:46.024Z,4.50
2023-05-08T19:30:14.392Z,4.00
2023-05-08T19:32:41.983Z,4.00
2023-05-08T19:35:10.378Z,4.07
2023-05-08T19:37:37.969Z,3.80
2023-05-08T19:40:06.002Z,3.93
2023-05-08T19:42:33.588Z,4.03
2023-05-08T19:45:00.349Z,6.27
2023-05-08T19:47:27.198Z,6.40
2023-05-08T19:49:54.358Z,6.60
2023-05-08T19:52:21.232Z,6.33
2023-05-08T19:54:48.058Z,5.70
2023-05-08T19:57:15.231Z,6.03
2023-05-08T19:59:41.931Z,6.00
2023-05-08T20:02:09.502Z,6.23
2023-05-08T20:04:48.831Z,6.33
2023-05-08T20:07:29.130Z,9.00
2023-05-08T20:09:56.502Z,8.43
2023-05-08T20:12:23.392Z,7.57
2023-05-08T20:14:50.723Z,6.33
2023-05-08T20:17:18.133Z,4.40
2023-05-08T20:19:45.612Z,4.30
2023-05-08T20:22:12.773Z,4.90
2023-05-08T20:24:40.044Z,4.60
2023-05-08T20:27:07.303Z,5.77
2023-05-08T20:29:34.145Z,6.03
2023-05-08T20:32:02.475Z,5.00
2023-05-08T20:34:30.368Z,5.10
2023-05-08T20:36:59.193Z,5.60
2023-05-08T20:39:26.471Z,5.40
2023-05-08T20:41:53.690Z,6.20
2023-05-08T20:44:20.408Z,5.67
2023-05-08T20:46:47.564Z,5.53
2023-05-08T20:49:14.847Z,5.07
2023-05-08T20:51:41.565Z,4.17
2023-05-08T20:54:08.825Z,4.97
2023-05-08T20:56:38.347Z,4.97
2023-05-08T20:59:05.499Z,4.97
2023-05-08T21:01:32.278Z,4.70
2023-05-08T21:03:59.171Z,4.30
2023-05-08T21:06:26.429Z,4.13
2023-05-08T21:08:53.164Z,4.30
2023-05-08T21:11:20.302Z,4.70
2023-05-08T21:13:48.218Z,4.70
2023-05-08T21:16:14.970Z,4.70
2023-05-08T21:18:41.718Z,4.20
2023-05-08T21:21:16.053Z,4.47
2023-05-08T21:23:43.106Z,4.70
2023-05-08T21:26:09.879Z,4.63
2023-05-08T21:28:37.180Z,5.27
2023-05-08T21:31:04.408Z,5.27
2023-05-08T21:33:31.368Z,4.83
2023-05-08T21:35:59.924Z,5.03
2023-05-08T21:38:26.675Z,5.00
2023-05-08T21:40:53.784Z,4.77
2023-05-08T21:43:20.578Z,4.60
2023-05-08T21:45:47.398Z,4.90
2023-05-08T21:48:45.131Z,4.60
2023-05-08T21:51:41.449Z,4.90
2023-05-08T21:54:10.523Z,4.90
2023-05-08T21:56:38.906Z,5.00
2023-05-08T21:59:06.638Z,4.80
2023-05-08T22:01:33.989Z,4.67
2023-05-08T22:04:00.903Z,4.90
2023-05-08T22:06:27.915Z,4.73
2023-05-08T22:08:54.674Z,4.70
2023-05-08T22:11:22.316Z,4.40
2023-05-08T22:13:49.104Z,4.63
2023-05-08T22:16:15.928Z,5.07
2023-05-08T22:18:42.758Z,4.33
2023-05-08T22:21:09.584Z,4.33
2023-05-08T22:23:36.332Z,4.80
2023-05-08T22:26:03.786Z,4.67
2023-05-08T22:28:30.631Z,4.77
2023-05-08T22:30:57.902Z,4.90
2023-05-08T22:33:24.577Z,4.53
2023-05-08T22:35:51.271Z,4.80
2023-05-08T22:38:18.609Z,4.57
2023-05-08T22:40:47.897Z,4.73
2023-05-08T22:43:15.493Z,4.37
2023-05-08T22:45:42.333Z,4.60
2023-05-08T22:48:10.780Z,4.60
2023-05-08T22:50:37.963Z,4.00
2023-05-08T22:53:08.084Z,4.73
2023-05-08T22:55:36.277Z,4.17
2023-05-08T22:58:03.675Z,4.83
2023-05-08T23:00:31.271Z,4.63
2023-05-08T23:02:58.145Z,4.73
2023-05-08T23:05:24.925Z,4.77
2023-05-08T23:07:52.622Z,4.70
2023-05-08T23:10:19.774Z,4.50
2023-05-08T23:12:46.750Z,4.37
2023-05-08T23:15:14.446Z,5.00
2023-05-08T23:17:41.432Z,4.87
2023-05-08T23:20:08.947Z,4.77
2023-05-08T23:22:35.743Z,4.93
2023-05-08T23:25:02.967Z,4.20
2023-05-08T23:27:30.148Z,4.70
2023-05-08T23:29:56.982Z,4.60
2023-05-08T23:32:24.212Z,5.37
2023-05-08T23:34:51.452Z,4.60
2023-05-08T23:37:18.175Z,4.40
2023-05-08T23:39:45.376Z,5.00
2023-05-08T23:42:12.490Z,6.07
2023-05-08T23:44:39.660Z,5.37
2023-05-08T23:47:06.967Z,5.07
2023-05-08T23:49:35.366Z,6.00
2023-05-08T23:52:03.139Z,5.50
2023-05-08T23:54:29.841Z,5.47
2023-05-08T23:56:57.148Z,5.20
2023-05-08T23:59:23.897Z,5.03
